createdAt,value
2023-05-13T00:01:44.510Z,9.10
2023-05-13T00:04:11.435Z,8.00
2023-05-13T00:06:38.436Z,7.70
2023-05-13T00:09:05.510Z,12.60
2023-05-13T00:11:32.252Z,7.20
2023-05-13T00:13:59.014Z,7.80
2023-05-13T00:16:27.761Z,11.90
2023-05-13T00:18:56.541Z,8.80
2023-05-13T00:21:23.891Z,10.30
2023-05-13T00:23:50.777Z,8.20
2023-05-13T00:26:17.646Z,7.40
2023-05-13T00:28:44.931Z,10.80
2023-05-13T00:31:11.709Z,11.10
2023-05-13T00:33:38.710Z,6.90
2023-05-13T00:36:07.321Z,7.80
2023-05-13T00:38:35.252Z,7.80
2023-05-13T00:41:03.083Z,7.80
2023-05-13T00:43:30.790Z,9.80
2023-05-13T00:45:57.701Z,9.10
2023-05-13T00:48:25.362Z,15.80
2023-05-13T00:50:52.160Z,9.10
2023-05-13T00:53:19.058Z,8.60
2023-05-13T00:55:46.192Z,9.60
2023-05-13T00:58:13.453Z,8.70
2023-05-13T01:01:05.098Z,9.30
2023-05-13T01:03:56.760Z,11.10
2023-05-13T01:06:32.948Z,10.80
2023-05-13T01:09:16.042Z,15.20
2023-05-13T01:11:42.774Z,14.30
2023-05-13T01:14:12.902Z,10.10
2023-05-13T01:17:06.012Z,8.90
2023-05-13T01:19:46.898Z,14.50
2023-05-13T01:22:14.429Z,12.50
2023-05-13T01:24:41.504Z,7.40
2023-05-13T01:27:08.719Z,10.50
2023-05-13T01:29:35.976Z,6.40
2023-05-13T01:32:03.187Z,7.20
2023-05-13T01:34:29.992Z,9.30
2023-05-13T01:36:56.721Z,10.80
2023-05-13T01:39:23.849Z,10.00
2023-05-13T01:41:52.075Z,9.60
2023-05-13T01:44:19.286Z,9.60
2023-05-13T01:46:47.926Z,10.00
2023-05-13T01:49:15.121Z,7.90
2023-05-13T01:51:42.146Z,9.20
2023-05-13T01:54:09.109Z,10.20
2023-05-13T01:56:39.154Z,10.90
2023-05-13T01:59:06.223Z,8.20
2023-05-13T02:01:33.069Z,8.50
2023-05-13T02:04:00.281Z,6.60
2023-05-13T02:06:28.097Z,8.30
2023-05-13T02:08:55.127Z,11.00
2023-05-13T02:11:22.659Z,8.30
2023-05-13T02:13:49.410Z,10.40
2023-05-13T02:16:17.399Z,9.30
2023-05-13T02:18:44.197Z,10.00
2023-05-13T02:21:11.141Z,8.60
2023-05-13T02:23:38.697Z,9.30
2023-05-13T02:26:05.470Z,9.00
2023-05-13T02:28:32.238Z,7.80
2023-05-13T02:30:59.235Z,9.80
2023-05-13T02:33:26.989Z,10.10
2023-05-13T02:35:53.735Z,8.80
2023-05-13T02:40:31.044Z,11.90
2023-05-13T02:42:58.494Z,8.80
2023-05-13T02:45:28.919Z,11.40
2023-05-13T02:47:56.834Z,12.90
2023-05-13T02:50:23.680Z,8.50
2023-05-13T02:52:51.223Z,9.00
2023-05-13T02:55:18.070Z,7.00
2023-05-13T02:57:45.097Z,8.30
2023-05-13T03:00:12.597Z,9.10
2023-05-13T03:02:39.532Z,8.50
2023-05-13T03:05:07.398Z,11.40
2023-05-13T03:07:34.626Z,9.20
2023-05-13T03:10:01.253Z,10.20
2023-05-13T03:12:28.953Z,11.70
2023-05-13T03:14:55.912Z,6.50
2023-05-13T03:17:22.755Z,8.50
2023-05-13T03:19:49.833Z,10.80
2023-05-13T03:22:16.413Z,8.80
2023-05-13T03:24:43.741Z,8.10
2023-05-13T03:27:10.780Z,8.30
2023-05-13T03:29:38.002Z,6.80
2023-05-13T03:32:06.270Z,6.50
2023-05-13T03:34:33.144Z,10.50
2023-05-13T03:37:00.099Z,12.30
2023-05-13T03:39:28.469Z,8.50
2023-05-13T03:41:55.365Z,9.40
2023-05-13T03:44:22.040Z,8.80
2023-05-13T03:46:48.993Z,12.20
2023-05-13T03:49:18.497Z,9.40
2023-05-13T03:51:45.555Z,10.30
2023-05-13T03:54:12.491Z,8.20
2023-05-13T03:56:39.779Z,7.30
2023-05-13T03:59:06.534Z,8.50
2023-05-13T04:01:35.928Z,11.70
2023-05-13T04:04:03.012Z,11.30
2023-05-13T04:06:31.272Z,8.90
2023-05-13T04:08:57.876Z,8.60
2023-05-13T04:11:25.413Z,10.50
2023-05-13T04:13:52.158Z,11.40
2023-05-13T04:16:18.878Z,13.30
2023-05-13T04:18:45.498Z,12.30
2023-05-13T04:21:12.151Z,11.60
2023-05-13T04:23:40.248Z,11.20
2023-05-13T04:26:06.893Z,8.40
2023-05-13T04:28:34.282Z,9.00
2023-05-13T04:31:02.207Z,11.60
2023-05-13T04:33:29.615Z,12.60
2023-05-13T04:35:56.160Z,8.90
2023-05-13T04:38:22.862Z,6.80
2023-05-13T04:40:50.083Z,14.10
2023-05-13T04:43:22.386Z,9.40
2023-05-13T04:45:55.637Z,9.80
2023-05-13T04:48:22.508Z,10.10
2023-05-13T04:50:50.085Z,11.50
2023-05-13T04:53:18.341Z,17.60
2023-05-13T04:55:47.798Z,17.10
2023-05-13T04:58:14.792Z,14.40
2023-05-13T05:00:43.981Z,13.10
2023-05-13T05:03:10.893Z,15.10
2023-05-13T05:05:37.772Z,10.00
2023-05-13T05:08:05.219Z,15.30
2023-05-13T05:10:31.747Z,13.30
2023-05-13T05:13:00.864Z,11.70
2023-05-13T05:15:29.331Z,10.10
2023-05-13T05:17:58.661Z,14.40
2023-05-13T05:20:26.047Z,12.90
2023-05-13T05:22:55.976Z,20.50
2023-05-13T05:25:25.543Z,21.00
2023-05-13T05:27:52.221Z,33.70
2023-05-13T05:30:19.413Z,23.90
2023-05-13T05:32:51.326Z,31.80
2023-05-13T05:35:19.260Z,41.10
2023-05-13T05:37:45.991Z,34.70
2023-05-13T05:40:13.037Z,39.70
2023-05-13T05:42:40.022Z,34.40
2023-05-13T05:45:07.576Z,20.00
2023-05-13T05:47:35.870Z,24.00
2023-05-13T05:50:02.865Z,26.70
2023-05-13T05:52:30.147Z,10.90
2023-05-13T05:54:58.291Z,16.50
2023-05-13T05:57:24.922Z,13.20
2023-05-13T05:59:51.666Z,4.90
2023-05-13T06:02:18.966Z,15.70
2023-05-13T06:04:45.561Z,11.30
2023-05-13T06:07:13.406Z,12.00
2023-05-13T06:09:40.399Z,6.30
2023-05-13T06:12:07.939Z,7.80
2023-05-13T06:14:36.052Z,5.80
2023-05-13T06:17:02.840Z,9.10
2023-05-13T06:19:29.645Z,3.90
2023-05-13T06:21:57.194Z,3.90
2023-05-13T06:24:24.064Z,3.30
2023-05-13T06:26:50.617Z,5.40
2023-05-13T06:29:17.207Z,10.70
2023-05-13T06:31:43.976Z,5.80
2023-05-13T06:34:15.791Z,8.40
2023-05-13T06:36:43.535Z,5.30
2023-05-13T06:39:11.172Z,7.00
2023-05-13T06:41:39.043Z,5.20
2023-05-13T06:44:09.411Z,6.90
2023-05-13T06:46:39.005Z,2.80
2023-05-13T06:49:05.918Z,6.60
2023-05-13T06:51:34.513Z,5.90
2023-05-13T06:54:01.103Z,4.00
2023-05-13T06:56:28.918Z,2.90
2023-05-13T06:58:55.715Z,7.00
2023-05-13T07:01:22.445Z,4.60
2023-05-13T07:03:49.236Z,7.60
2023-05-13T07:06:15.989Z,4.30
2023-05-13T07:08:42.609Z,4.00
2023-05-13T07:11:09.167Z,6.50
2023-05-13T07:13:35.821Z,3.90
2023-05-13T07:16:02.610Z,4.50
2023-05-13T07:18:29.642Z,3.10
2023-05-13T07:20:56.503Z,3.20
2023-05-13T07:23:23.451Z,3.30
2023-05-13T07:25:50.906Z,3.30
2023-05-13T07:28:19.413Z,7.80
2023-05-13T07:30:46.233Z,3.70
2023-05-13T07:33:13.030Z,2.30
2023-05-13T07:35:39.709Z,6.00
2023-05-13T07:38:06.664Z,3.30
2023-05-13T07:40:33.855Z,2.60
2023-05-13T07:43:00.466Z,6.20
2023-05-13T07:45:27.488Z,4.50
2023-05-13T07:47:54.424Z,3.70
2023-05-13T07:50:20.966Z,5.20
2023-05-13T07:52:48.698Z,3.20
2023-05-13T07:55:16.630Z,5.20
2023-05-13T07:57:45.439Z,7.60
2023-05-13T08:00:13.046Z,3.70
2023-05-13T08:02:42.132Z,6.60
2023-05-13T08:05:10.388Z,5.20
2023-05-13T08:07:38.540Z,2.20
2023-05-13T08:10:06.196Z,4.10
2023-05-13T08:12:33.224Z,3.40
2023-05-13T08:15:00.972Z,9.60
2023-05-13T08:17:29.106Z,5.00
2023-05-13T08:19:55.691Z,7.20
2023-05-13T08:22:22.394Z,4.30
2023-05-13T08:24:49.130Z,5.70
2023-05-13T08:27:16.423Z,13.40
2023-05-13T08:29:43.103Z,4.50
2023-05-13T08:32:09.869Z,3.20
2023-05-13T08:34:36.668Z,3.60
2023-05-13T08:37:03.650Z,5.10
2023-05-13T08:39:30.578Z,4.90
2023-05-13T08:41:57.338Z,3.50
2023-05-13T08:44:28.449Z,3.30
2023-05-13T08:47:13.066Z,4.60
2023-05-13T08:49:39.988Z,2.50
2023-05-13T08:52:06.570Z,8.70
2023-05-13T08:54:33.304Z,3.40
2023-05-13T08:57:00.209Z,4.30
2023-05-13T08:59:26.777Z,3.90
2023-05-13T09:01:54.427Z,4.40
2023-05-13T09:04:21.119Z,1.70
2023-05-13T09:06:47.848Z,1.70
2023-05-13T09:09:14.474Z,7.40
2023-05-13T09:11:44.672Z,5.80
2023-05-13T09:14:13.093Z,1.50
2023-05-13T09:16:39.681Z,2.30
2023-05-13T09:19:07.541Z,4.30
2023-05-13T09:21:35.486Z,5.30
2023-05-13T09:24:11.173Z,2.20
2023-05-13T09:26:39.686Z,10.20
2023-05-13T09:29:28.442Z,2.80
2023-05-13T09:31:57.542Z,5.60
2023-05-13T09:34:34.250Z,2.40
2023-05-13T09:37:01.533Z,5.70
2023-05-13T09:39:28.439Z,2.40
2023-05-13T09:41:55.887Z,7.50
2023-05-13T09:44:22.658Z,3.40
2023-05-13T09:46:52.957Z,4.20
2023-05-13T09:49:23.907Z,3.20
2023-05-13T09:51:50.676Z,5.10
2023-05-13T09:54:17.444Z,3.50
2023-05-13T09:56:44.185Z,3.00
2023-05-13T09:59:10.794Z,3.20
2023-05-13T10:01:37.655Z,4.90
2023-05-13T10:04:05.562Z,5.40
2023-05-13T10:06:32.630Z,6.00
2023-05-13T10:09:02.631Z,4.30
2023-05-13T10:11:30.396Z,3.00
2023-05-13T10:14:02.703Z,4.80
2023-05-13T10:16:29.593Z,5.40
2023-05-13T10:18:58.244Z,2.20
2023-05-13T10:21:26.165Z,4.60
2023-05-13T10:23:53.175Z,4.80
2023-05-13T10:26:20.844Z,1.60
2023-05-13T10:28:48.338Z,2.70
2023-05-13T10:31:18.885Z,3.40
2023-05-13T10:33:46.195Z,4.90
2023-05-13T10:36:25.213Z,2.10
2023-05-13T10:39:04.422Z,4.40
2023-05-13T10:41:52.740Z,2.70
2023-05-13T10:44:19.366Z,3.50
2023-05-13T10:46:49.156Z,5.60
2023-05-13T10:49:16.230Z,2.30
2023-05-13T10:51:49.493Z,2.70
2023-05-13T10:54:24.081Z,2.50
2023-05-13T10:56:57.328Z,5.10
2023-05-13T10:59:23.947Z,3.50
2023-05-13T11:01:50.614Z,3.40
2023-05-13T11:04:18.658Z,5.10
2023-05-13T11:06:48.224Z,2.80
2023-05-13T11:09:28.868Z,4.40
2023-05-13T11:11:57.434Z,12.60
2023-05-13T11:14:24.910Z,4.80
2023-05-13T11:17:01.251Z,4.30
2023-05-13T11:19:30.076Z,3.40
2023-05-13T11:22:17.763Z,3.50
2023-05-13T11:24:45.282Z,2.50
2023-05-13T11:27:15.919Z,1.70
2023-05-13T11:32:51.467Z,4.40
2023-05-13T11:35:25.825Z,4.20
2023-05-13T11:37:53.948Z,3.50
2023-05-13T11:40:33.344Z,10.50
2023-05-13T11:43:00.576Z,4.50
2023-05-13T11:45:28.049Z,3.80
2023-05-13T11:47:55.449Z,3.60
2023-05-13T11:50:22.740Z,2.20
2023-05-13T11:52:56.741Z,2.90
2023-05-13T11:55:30.820Z,4.90
2023-05-13T11:57:58.357Z,4.60
2023-05-13T12:00:35.133Z,3.50
2023-05-13T12:03:08.404Z,3.40
2023-05-13T12:05:35.407Z,4.50
2023-05-13T12:08:02.577Z,5.10
2023-05-13T12:10:29.219Z,2.00
2023-05-13T12:12:56.406Z,8.60
2023-05-13T12:15:26.581Z,2.30
2023-05-13T12:17:53.955Z,3.40
2023-05-13T12:20:21.699Z,5.20
2023-05-13T12:22:49.274Z,5.70
2023-05-13T12:25:38.100Z,2.00
2023-05-13T12:28:11.521Z,3.90
2023-05-13T12:30:39.820Z,5.20
2023-05-13T12:33:20.909Z,2.80
2023-05-13T12:35:49.695Z,3.20
2023-05-13T12:38:17.624Z,3.20
2023-05-13T12:40:45.430Z,5.00
2023-05-13T12:43:12.699Z,4.60
2023-05-13T12:45:43.254Z,7.20
2023-05-13T12:48:11.341Z,4.30
2023-05-13T12:50:38.215Z,5.90
2023-05-13T12:53:05.287Z,3.50
2023-05-13T12:55:32.199Z,3.60
2023-05-13T12:58:01.492Z,5.50
2023-05-13T13:00:28.975Z,2.50
2023-05-13T13:02:56.157Z,3.90
2023-05-13T13:05:23.752Z,2.90
2023-05-13T13:07:51.139Z,5.30
2023-05-13T13:10:17.977Z,2.50
2023-05-13T13:12:44.829Z,5.30
2023-05-13T13:15:11.778Z,5.00
2023-05-13T13:17:38.682Z,1.80
2023-05-13T13:20:07.807Z,3.70
2023-05-13T13:22:36.460Z,5.30
2023-05-13T13:25:06.421Z,4.30
2023-05-13T13:27:34.107Z,4.60
2023-05-13T13:30:00.740Z,5.30
2023-05-13T13:32:27.587Z,3.30
2023-05-13T13:34:54.395Z,7.30
2023-05-13T13:37:21.088Z,2.80
2023-05-13T13:39:47.870Z,3.90
2023-05-13T13:42:14.544Z,2.50
2023-05-13T13:44:41.658Z,3.30
2023-05-13T13:47:08.841Z,2.00
2023-05-13T13:49:35.402Z,3.00
2023-05-13T13:52:01.991Z,2.50
2023-05-13T13:54:28.868Z,8.50
2023-05-13T13:56:55.497Z,2.90
2023-05-13T13:59:22.202Z,3.60
2023-05-13T14:01:49.088Z,2.70
2023-05-13T14:04:19.158Z,4.40
2023-05-13T14:06:46.188Z,3.90
2023-05-13T14:09:12.739Z,4.00
2023-05-13T14:11:39.489Z,8.40
2023-05-13T14:14:06.722Z,4.40
2023-05-13T14:16:33.881Z,6.90
2023-05-13T14:19:00.743Z,13.40
2023-05-13T14:21:27.334Z,14.40
2023-05-13T14:23:54.004Z,28.30
2023-05-13T14:26:21.207Z,6.80
2023-05-13T14:28:47.797Z,4.20
2023-05-13T14:31:14.517Z,2.50
2023-05-13T14:33:41.080Z,4.20
2023-05-13T14:36:10.381Z,6.30
2023-05-13T14:38:39.253Z,5.00
2023-05-13T14:41:05.985Z,4.10
2023-05-13T14:43:32.824Z,3.50
2023-05-13T14:45:59.494Z,2.50
2023-05-13T14:48:26.862Z,5.30
2023-05-13T14:50:53.907Z,3.60
2023-05-13T14:53:20.835Z,7.60
2023-05-13T14:57:12.249Z,4.50
2023-05-13T14:59:39.007Z,8.70
2023-05-13T15:02:06.094Z,9.20
2023-05-13T15:04:32.918Z,3.20
2023-05-13T15:06:59.725Z,14.60
2023-05-13T15:09:26.550Z,9.50
2023-05-13T15:11:56.370Z,6.40
2023-05-13T15:14:25.723Z,5.60
2023-05-13T15:16:53.193Z,17.70
2023-05-13T15:19:20.123Z,11.50
2023-05-13T15:21:46.827Z,11.70
2023-05-13T15:24:13.552Z,12.10
2023-05-13T15:26:40.375Z,12.10
2023-05-13T15:29:07.174Z,9.40
2023-05-13T15:31:33.982Z,22.10
2023-05-13T15:34:02.470Z,14.10
2023-05-13T15:36:29.314Z,6.70
2023-05-13T15:38:56.057Z,20.00
2023-05-13T15:41:22.835Z,10.60
2023-05-13T15:43:49.560Z,10.20
2023-05-13T15:46:16.791Z,8.40
2023-05-13T15:48:43.875Z,7.00
2023-05-13T15:51:10.629Z,9.90
2023-05-13T15:53:37.341Z,3.30
2023-05-13T15:56:04.202Z,4.50
2023-05-13T15:58:31.271Z,4.90
2023-05-13T16:00:58.422Z,4.90
2023-05-13T16:03:25.331Z,4.50
2023-05-13T16:05:53.003Z,3.60
2023-05-13T16:08:19.907Z,3.10
2023-05-13T16:10:49.596Z,5.90
2023-05-13T16:13:16.364Z,6.00
2023-05-13T16:15:43.123Z,4.60
2023-05-13T16:18:09.954Z,2.90
2023-05-13T16:20:36.694Z,5.90
2023-05-13T16:23:03.578Z,9.10
2023-05-13T16:25:30.402Z,6.60
2023-05-13T16:27:57.265Z,6.00
2023-05-13T16:30:24.132Z,6.60
2023-05-13T16:32:54.654Z,5.70
2023-05-13T16:35:21.692Z,5.70
2023-05-13T16:37:48.994Z,5.80
2023-05-13T16:40:15.828Z,6.00
2023-05-13T16:42:42.619Z,9.70
2023-05-13T16:45:09.851Z,15.00
2023-05-13T16:47:36.640Z,7.60
2023-05-13T16:50:04.039Z,9.40
2023-05-13T16:52:34.419Z,10.40
2023-05-13T16:55:01.257Z,15.10
2023-05-13T16:57:28.181Z,17.90
2023-05-13T16:59:55.246Z,11.90
2023-05-13T17:02:22.198Z,18.30
2023-05-13T17:04:51.575Z,23.60
2023-05-13T17:07:18.325Z,17.30
2023-05-13T17:09:48.161Z,20.00
2023-05-13T17:12:16.774Z,8.20
2023-05-13T17:14:43.766Z,21.20
2023-05-13T17:17:10.693Z,13.20
2023-05-13T17:19:37.547Z,22.80
2023-05-13T17:22:04.555Z,16.30
2023-05-13T17:24:31.768Z,13.10
2023-05-13T17:26:58.548Z,26.40
2023-05-13T17:29:26.022Z,15.50
2023-05-13T17:31:52.987Z,19.20
2023-05-13T17:34:20.041Z,16.00
2023-05-13T17:36:48.657Z,21.00
2023-05-13T17:39:16.930Z,29.90
2023-05-13T17:41:43.951Z,15.00
2023-05-13T17:44:10.888Z,16.40
2023-05-13T17:46:37.804Z,32.30
2023-05-13T17:49:04.719Z,39.60
2023-05-13T17:51:31.663Z,23.30
2023-05-13T17:53:59.565Z,21.40
2023-05-13T17:56:26.870Z,13.50
2023-05-13T17:58:53.688Z,14.60
2023-05-13T18:01:21.972Z,18.10
2023-05-13T18:03:48.951Z,9.80
2023-05-13T18:06:16.267Z,14.00
2023-05-13T18:08:43.177Z,13.20
2023-05-13T18:11:09.948Z,16.00
2023-05-13T18:13:36.780Z,15.60
2023-05-13T18:16:06.135Z,14.60
2023-05-13T18:18:33.084Z,16.20
2023-05-13T18:21:00.468Z,9.50
2023-05-13T18:23:27.283Z,13.00
2023-05-13T18:25:56.176Z,6.60
2023-05-13T18:28:23.779Z,13.80
2023-05-13T18:30:50.620Z,10.80
2023-05-13T18:33:19.766Z,11.00
2023-05-13T18:35:46.565Z,9.00
2023-05-13T18:38:13.338Z,14.00
2023-05-13T18:40:40.078Z,7.40
2023-05-13T18:43:06.819Z,7.30
2023-05-13T18:45:33.689Z,8.90
2023-05-13T18:48:00.488Z,10.20
2023-05-13T18:50:27.778Z,7.80
2023-05-13T18:52:54.644Z,7.10
2023-05-13T18:55:21.644Z,9.10
2023-05-13T18:57:49.333Z,10.30
2023-05-13T19:00:16.502Z,14.50
2023-05-13T19:02:43.584Z,6.70
2023-05-13T19:05:10.554Z,6.90
2023-05-13T19:07:37.371Z,13.30
2023-05-13T19:10:04.342Z,20.30
2023-05-13T19:12:31.091Z,18.70
2023-05-13T19:14:57.836Z,15.80
2023-05-13T19:17:24.680Z,21.10
2023-05-13T19:19:51.503Z,18.90
2023-05-13T19:22:18.281Z,14.00
2023-05-13T19:24:45.027Z,19.20
2023-05-13T19:27:12.247Z,10.90
2023-05-13T19:29:38.968Z,10.00
2023-05-13T19:32:06.340Z,9.60
2023-05-13T19:34:33.108Z,8.70
2023-05-13T19:36:59.951Z,10.40
2023-05-13T19:39:26.667Z,10.00
2023-05-13T19:41:53.455Z,10.00
2023-05-13T19:44:20.291Z,14.20
2023-05-13T19:46:47.201Z,10.80
2023-05-13T19:49:14.081Z,12.90
2023-05-13T19:51:42.082Z,6.60
2023-05-13T19:54:12.515Z,14.70
2023-05-13T19:56:39.298Z,13.70
2023-05-13T19:59:06.041Z,23.60
2023-05-13T20:01:32.850Z,17.00
2023-05-13T20:03:59.756Z,16.90
2023-05-13T20:06:26.635Z,13.70
2023-05-13T20:08:53.447Z,9.70
2023-05-13T20:11:20.566Z,10.70
2023-05-13T20:13:47.297Z,19.70
2023-05-13T20:16:14.059Z,15.60
2023-05-13T20:18:41.360Z,10.60
2023-05-13T20:21:08.222Z,9.20
2023-05-13T20:23:35.000Z,11.20
2023-05-13T20:26:02.223Z,11.90
2023-05-13T20:28:29.011Z,10.10
2023-05-13T20:30:56.218Z,14.90
2023-05-13T20:33:23.013Z,12.90
2023-05-13T20:35:49.802Z,16.90
2023-05-13T20:38:16.578Z,16.20
2023-05-13T20:40:43.304Z,10.40
2023-05-13T20:43:10.082Z,16.40
2023-05-13T20:45:39.647Z,12.00
2023-05-13T20:48:06.750Z,14.30
2023-05-13T20:50:33.575Z,13.50
2023-05-13T20:53:00.727Z,14.90
2023-05-13T20:55:27.682Z,15.40
2023-05-13T20:57:54.445Z,9.30
2023-05-13T21:00:21.680Z,9.90
2023-05-13T21:02:50.454Z,10.50
2023-05-13T21:05:17.565Z,11.30
2023-05-13T21:07:44.327Z,11.80
2023-05-13T21:10:11.216Z,13.60
2023-05-13T21:12:38.084Z,11.80
2023-05-13T21:15:05.461Z,12.10
2023-05-13T21:17:32.241Z,14.90
2023-05-13T21:19:58.993Z,11.50
2023-05-13T21:22:25.864Z,14.20
2023-05-13T21:24:52.629Z,10.10
2023-05-13T21:27:19.443Z,11.10
2023-05-13T21:29:46.210Z,14.50
2023-05-13T21:32:13.096Z,11.10
2023-05-13T21:34:39.971Z,13.30
2023-05-13T21:37:06.787Z,10.30
2023-05-13T21:39:33.613Z,12.30
2023-05-13T21:42:00.763Z,14.90
2023-05-13T21:44:28.925Z,13.80
2023-05-13T21:46:55.964Z,8.30
2023-05-13T21:49:22.784Z,13.50
2023-05-13T21:51:49.632Z,7.80
2023-05-13T21:54:19.222Z,9.70
2023-05-13T21:56:46.728Z,10.30
2023-05-13T21:59:13.661Z,9.10
2023-05-13T22:01:40.525Z,10.30
2023-05-13T22:04:07.463Z,8.90
2023-05-13T22:06:34.626Z,12.80
2023-05-13T22:09:01.799Z,12.30
2023-05-13T22:11:28.583Z,11.30
2023-05-13T22:13:55.784Z,13.10
2023-05-13T22:16:22.854Z,9.90
2023-05-13T22:18:50.991Z,12.00
2023-05-13T22:21:17.943Z,12.30
2023-05-13T22:23:44.762Z,14.80
2023-05-13T22:26:12.130Z,9.20
2023-05-13T22:28:39.178Z,11.70
2023-05-13T22:31:06.349Z,11.20
2023-05-13T22:33:33.105Z,10.90
2023-05-13T22:35:59.863Z,11.60
2023-05-13T22:38:29.572Z,13.60
2023-05-13T22:40:56.425Z,10.90
2023-05-13T22:43:23.144Z,14.40
2023-05-13T22:45:49.919Z,7.40
2023-05-13T22:48:16.746Z,12.10
2023-05-13T22:50:43.745Z,8.30
2023-05-13T22:53:10.576Z,13.70
2023-05-13T22:55:37.628Z,12.80
2023-05-13T22:58:04.875Z,9.10
2023-05-13T23:00:32.131Z,7.10
2023-05-13T23:06:13.726Z,12.00
2023-05-13T23:08:40.556Z,12.90
2023-05-13T23:11:07.323Z,14.20
2023-05-13T23:13:34.099Z,8.60
2023-05-13T23:16:00.882Z,10.30
2023-05-13T23:18:28.312Z,10.90
2023-05-13T23:20:56.114Z,10.00
2023-05-13T23:23:23.037Z,11.10
2023-05-13T23:25:50.382Z,8.50
2023-05-13T23:28:17.629Z,9.50
2023-05-13T23:30:44.411Z,9.10
2023-05-13T23:33:11.148Z,10.40
2023-05-13T23:35:38.073Z,8.60
2023-05-13T23:38:04.878Z,12.00
2023-05-13T23:40:31.652Z,7.70
2023-05-13T23:42:58.403Z,9.20
2023-05-13T23:45:25.241Z,8.90
2023-05-13T23:47:52.004Z,12.10
2023-05-13T23:50:19.011Z,9.20
2023-05-13T23:52:45.868Z,8.20
2023-05-13T23:55:12.608Z,8.40
2023-05-13T23:57:39.428Z,11.10
